sensor_id;sensor_type;location;lat;lon;timestamp;P1;durP1;ratioP1;P2;durP2;ratioP2
48685;SDS011;34485;51.536;3.816;2022-08-14T00:00:11;4.45;;;3.75;;
48685;SDS011;34485;51.536;3.816;2022-08-14T00:02:39;2.95;;;2.75;;
48685;SDS011;34485;51.536;3.816;2022-08-14T00:05:10;3.30;;;3.10;;
48685;SDS011;34485;51.536;3.816;2022-08-14T00:07:38;3.95;;;3.65;;
48685;SDS011;34485;51.536;3.816;2022-08-14T00:10:05;4.68;;;3.47;;
48685;SDS011;34485;51.536;3.816;2022-08-14T00:12:34;3.22;;;2.92;;
48685;SDS011;34485;51.536;3.816;2022-08-14T00:15:02;4.05;;;3.13;;
48685;SDS011;34485;51.536;3.816;2022-08-14T00:17:34;3.93;;;3.53;;
48685;SDS011;34485;51.536;3.816;2022-08-14T00:20:00;3.63;;;3.33;;
48685;SDS011;34485;51.536;3.816;2022-08-14T00:22:25;3.73;;;3.53;;
48685;SDS011;34485;51.536;3.816;2022-08-14T00:24:51;3.58;;;3.15;;
48685;SDS011;34485;51.536;3.816;2022-08-14T00:27:17;4.67;;;3.60;;
48685;SDS011;34485;51.536;3.816;2022-08-14T00:29:42;7.47;;;3.50;;
48685;SDS011;34485;51.536;3.816;2022-08-14T00:32:08;4.03;;;3.20;;
48685;SDS011;34485;51.536;3.816;2022-08-14T00:34:34;3.38;;;3.03;;
48685;SDS011;34485;51.536;3.816;2022-08-14T00:36:59;3.57;;;3.37;;
48685;SDS011;34485;51.536;3.816;2022-08-14T00:39:25;4.57;;;3.55;;
48685;SDS011;34485;51.536;3.816;2022-08-14T00:41:51;4.07;;;3.67;;
48685;SDS011;34485;51.536;3.816;2022-08-14T00:44:16;6.80;;;3.60;;
48685;SDS011;34485;51.536;3.816;2022-08-14T00:46:42;6.23;;;3.60;;
48685;SDS011;34485;51.536;3.816;2022-08-14T00:49:09;10.65;;;3.75;;
48685;SDS011;34485;51.536;3.816;2022-08-14T00:51:36;3.40;;;3.10;;
48685;SDS011;34485;51.536;3.816;2022-08-14T00:54:03;3.53;;;3.23;;
48685;SDS011;34485;51.536;3.816;2022-08-14T00:56:30;5.15;;;3.38;;
48685;SDS011;34485;51.536;3.816;2022-08-14T00:58:56;3.80;;;3.40;;
48685;SDS011;34485;51.536;3.816;2022-08-14T01:01:23;7.00;;;4.00;;
48685;SDS011;34485;51.536;3.816;2022-08-14T01:03:49;5.80;;;3.28;;
48685;SDS011;34485;51.536;3.816;2022-08-14T01:06:17;3.73;;;3.43;;
48685;SDS011;34485;51.536;3.816;2022-08-14T01:08:43;4.20;;;3.70;;
48685;SDS011;34485;51.536;3.816;2022-08-14T01:11:10;5.82;;;3.45;;
48685;SDS011;34485;51.536;3.816;2022-08-14T01:13:40;4.17;;;3.10;;
48685;SDS011;34485;51.536;3.816;2022-08-14T01:16:09;3.42;;;3.13;;
48685;SDS011;34485;51.536;3.816;2022-08-14T01:18:37;3.22;;;2.97;;
48685;SDS011;34485;51.536;3.816;2022-08-14T01:21:23;3.70;;;2.90;;
48685;SDS011;34485;51.536;3.816;2022-08-14T01:23:50;4.95;;;3.58;;
48685;SDS011;34485;51.536;3.816;2022-08-14T01:26:18;4.40;;;4.00;;
48685;SDS011;34485;51.536;3.816;2022-08-14T01:28:47;4.15;;;3.72;;
48685;SDS011;34485;51.536;3.816;2022-08-14T01:31:16;6.78;;;4.28;;
48685;SDS011;34485;51.536;3.816;2022-08-14T01:33:46;4.88;;;4.45;;
48685;SDS011;34485;51.536;3.816;2022-08-14T01:36:14;4.65;;;4.05;;
48685;SDS011;34485;51.536;3.816;2022-08-14T01:38:42;4.00;;;3.70;;
48685;SDS011;34485;51.536;3.816;2022-08-14T01:41:10;7.75;;;4.57;;
48685;SDS011;34485;51.536;3.816;2022-08-14T01:46:27;4.97;;;4.47;;
48685;SDS011;34485;51.536;3.816;2022-08-14T01:48:56;4.32;;;3.92;;
48685;SDS011;34485;51.536;3.816;2022-08-14T01:51:22;6.73;;;5.47;;
48685;SDS011;34485;51.536;3.816;2022-08-14T01:54:00;4.78;;;4.38;;
48685;SDS011;34485;51.536;3.816;2022-08-14T01:56:30;5.07;;;4.68;;
48685;SDS011;34485;51.536;3.816;2022-08-14T02:01:46;5.63;;;5.13;;
48685;SDS011;34485;51.536;3.816;2022-08-14T02:04:15;6.50;;;4.83;;
48685;SDS011;34485;51.536;3.816;2022-08-14T02:06:41;6.82;;;4.78;;
48685;SDS011;34485;51.536;3.816;2022-08-14T02:09:08;5.78;;;5.15;;
48685;SDS011;34485;51.536;3.816;2022-08-14T02:11:34;6.07;;;5.57;;
48685;SDS011;34485;51.536;3.816;2022-08-14T02:14:01;8.85;;;5.78;;
48685;SDS011;34485;51.536;3.816;2022-08-14T02:16:32;5.88;;;5.38;;
48685;SDS011;34485;51.536;3.816;2022-08-14T02:19:04;5.68;;;5.18;;
48685;SDS011;34485;51.536;3.816;2022-08-14T02:21:34;6.53;;;5.88;;
48685;SDS011;34485;51.536;3.816;2022-08-14T02:24:00;5.67;;;5.17;;
48685;SDS011;34485;51.536;3.816;2022-08-14T02:26:32;6.40;;;5.80;;
48685;SDS011;34485;51.536;3.816;2022-08-14T02:29:00;7.25;;;6.05;;
48685;SDS011;34485;51.536;3.816;2022-08-14T02:31:29;5.78;;;5.28;;
48685;SDS011;34485;51.536;3.816;2022-08-14T02:34:04;7.03;;;6.00;;
48685;SDS011;34485;51.536;3.816;2022-08-14T02:36:33;6.67;;;6.07;;
48685;SDS011;34485;51.536;3.816;2022-08-14T02:38:58;6.30;;;5.70;;
48685;SDS011;34485;51.536;3.816;2022-08-14T02:41:24;8.00;;;5.77;;
48685;SDS011;34485;51.536;3.816;2022-08-14T02:43:50;8.88;;;5.32;;
48685;SDS011;34485;51.536;3.816;2022-08-14T02:46:16;8.47;;;5.23;;
48685;SDS011;34485;51.536;3.816;2022-08-14T02:48:42;5.17;;;4.77;;
48685;SDS011;34485;51.536;3.816;2022-08-14T02:51:10;6.03;;;5.57;;
48685;SDS011;34485;51.536;3.816;2022-08-14T02:53:41;7.18;;;6.53;;
48685;SDS011;34485;51.536;3.816;2022-08-14T02:56:09;6.30;;;5.43;;
48685;SDS011;34485;51.536;3.816;2022-08-14T02:58:44;6.20;;;5.70;;
48685;SDS011;34485;51.536;3.816;2022-08-14T03:01:15;6.25;;;5.75;;
48685;SDS011;34485;51.536;3.816;2022-08-14T03:03:43;6.50;;;5.90;;
48685;SDS011;34485;51.536;3.816;2022-08-14T03:06:10;10.45;;;7.05;;
48685;SDS011;34485;51.536;3.816;2022-08-14T03:08:38;6.43;;;5.80;;
48685;SDS011;34485;51.536;3.816;2022-08-14T03:11:06;6.77;;;6.10;;
48685;SDS011;34485;51.536;3.816;2022-08-14T03:13:40;6.90;;;6.30;;
48685;SDS011;34485;51.536;3.816;2022-08-14T03:16:14;6.88;;;6.28;;
48685;SDS011;34485;51.536;3.816;2022-08-14T03:18:43;9.48;;;6.75;;
48685;SDS011;34485;51.536;3.816;2022-08-14T03:21:10;9.02;;;5.85;;
48685;SDS011;34485;51.536;3.816;2022-08-14T03:23:38;12.90;;;6.63;;
48685;SDS011;34485;51.536;3.816;2022-08-14T03:26:09;8.85;;;6.00;;
48685;SDS011;34485;51.536;3.816;2022-08-14T03:28:36;13.32;;;6.55;;
48685;SDS011;34485;51.536;3.816;2022-08-14T03:31:05;6.95;;;6.18;;
48685;SDS011;34485;51.536;3.816;2022-08-14T03:33:32;7.55;;;6.07;;
48685;SDS011;34485;51.536;3.816;2022-08-14T03:36:01;10.00;;;6.60;;
48685;SDS011;34485;51.536;3.816;2022-08-14T03:38:34;11.07;;;6.47;;
48685;SDS011;34485;51.536;3.816;2022-08-14T03:41:09;6.97;;;6.25;;
48685;SDS011;34485;51.536;3.816;2022-08-14T03:43:47;8.20;;;7.38;;
48685;SDS011;34485;51.536;3.816;2022-08-14T03:46:15;12.32;;;7.75;;
48685;SDS011;34485;51.536;3.816;2022-08-14T03:48:41;6.37;;;5.87;;
48685;SDS011;34485;51.536;3.816;2022-08-14T03:51:08;6.95;;;6.25;;
48685;SDS011;34485;51.536;3.816;2022-08-14T03:53:36;9.20;;;6.78;;
48685;SDS011;34485;51.536;3.816;2022-08-14T03:56:08;13.40;;;6.85;;
48685;SDS011;34485;51.536;3.816;2022-08-14T03:58:38;8.88;;;6.47;;
48685;SDS011;34485;51.536;3.816;2022-08-14T04:01:06;7.43;;;6.60;;
48685;SDS011;34485;51.536;3.816;2022-08-14T04:03:34;7.30;;;6.60;;
48685;SDS011;34485;51.536;3.816;2022-08-14T04:06:00;9.95;;;8.93;;
48685;SDS011;34485;51.536;3.816;2022-08-14T04:08:26;9.68;;;7.40;;
48685;SDS011;34485;51.536;3.816;2022-08-14T04:10:53;8.13;;;7.35;;
48685;SDS011;34485;51.536;3.816;2022-08-14T04:13:20;13.40;;;7.73;;
48685;SDS011;34485;51.536;3.816;2022-08-14T04:15:46;10.32;;;8.38;;
48685;SDS011;34485;51.536;3.816;2022-08-14T04:18:12;13.52;;;8.32;;
48685;SDS011;34485;51.536;3.816;2022-08-14T04:20:39;9.57;;;8.23;;
48685;SDS011;34485;51.536;3.816;2022-08-14T04:23:06;8.77;;;7.75;;
48685;SDS011;34485;51.536;3.816;2022-08-14T04:25:33;9.65;;;7.30;;
48685;SDS011;34485;51.536;3.816;2022-08-14T04:28:00;14.30;;;8.95;;
48685;SDS011;34485;51.536;3.816;2022-08-14T04:30:30;8.13;;;6.97;;
48685;SDS011;34485;51.536;3.816;2022-08-14T04:32:57;14.63;;;7.97;;
48685;SDS011;34485;51.536;3.816;2022-08-14T04:35:23;12.13;;;8.85;;
48685;SDS011;34485;51.536;3.816;2022-08-14T04:37:49;12.45;;;8.80;;
48685;SDS011;34485;51.536;3.816;2022-08-14T04:40:33;9.20;;;7.77;;
48685;SDS011;34485;51.536;3.816;2022-08-14T04:43:17;10.63;;;8.00;;
48685;SDS011;34485;51.536;3.816;2022-08-14T04:46:05;8.60;;;7.80;;
48685;SDS011;34485;51.536;3.816;2022-08-14T04:48:35;9.77;;;7.70;;
48685;SDS011;34485;51.536;3.816;2022-08-14T04:51:03;30.38;;;7.78;;
48685;SDS011;34485;51.536;3.816;2022-08-14T04:53:32;10.23;;;7.73;;
48685;SDS011;34485;51.536;3.816;2022-08-14T04:55:58;13.18;;;8.25;;
48685;SDS011;34485;51.536;3.816;2022-08-14T04:58:25;10.85;;;7.63;;
48685;SDS011;34485;51.536;3.816;2022-08-14T05:00:53;8.00;;;7.20;;
48685;SDS011;34485;51.536;3.816;2022-08-14T05:03:20;13.30;;;8.03;;
48685;SDS011;34485;51.536;3.816;2022-08-14T05:05:48;9.70;;;7.65;;
48685;SDS011;34485;51.536;3.816;2022-08-14T05:08:15;14.35;;;7.95;;
48685;SDS011;34485;51.536;3.816;2022-08-14T05:10:42;10.20;;;7.88;;
48685;SDS011;34485;51.536;3.816;2022-08-14T05:13:10;10.65;;;7.57;;
48685;SDS011;34485;51.536;3.816;2022-08-14T05:15:40;13.23;;;7.20;;
48685;SDS011;34485;51.536;3.816;2022-08-14T05:18:10;8.20;;;7.40;;
48685;SDS011;34485;51.536;3.816;2022-08-14T05:20:39;8.38;;;7.40;;
48685;SDS011;34485;51.536;3.816;2022-08-14T05:23:14;10.15;;;7.40;;
48685;SDS011;34485;51.536;3.816;2022-08-14T05:25:42;8.50;;;7.22;;
48685;SDS011;34485;51.536;3.816;2022-08-14T05:28:13;10.83;;;8.57;;
48685;SDS011;34485;51.536;3.816;2022-08-14T05:30:47;10.40;;;8.23;;
48685;SDS011;34485;51.536;3.816;2022-08-14T05:33:21;10.77;;;8.68;;
48685;SDS011;34485;51.536;3.816;2022-08-14T05:35:52;9.63;;;7.85;;
48685;SDS011;34485;51.536;3.816;2022-08-14T05:38:25;10.93;;;8.00;;
48685;SDS011;34485;51.536;3.816;2022-08-14T05:40:53;10.40;;;7.03;;
48685;SDS011;34485;51.536;3.816;2022-08-14T05:43:21;13.27;;;7.85;;
48685;SDS011;34485;51.536;3.816;2022-08-14T05:45:46;12.95;;;8.00;;
48685;SDS011;34485;51.536;3.816;2022-08-14T05:48:13;9.23;;;7.93;;
48685;SDS011;34485;51.536;3.816;2022-08-14T05:50:40;9.53;;;8.00;;
48685;SDS011;34485;51.536;3.816;2022-08-14T05:53:06;9.75;;;8.77;;
48685;SDS011;34485;51.536;3.816;2022-08-14T05:55:32;8.50;;;7.70;;
48685;SDS011;34485;51.536;3.816;2022-08-14T05:58:00;9.02;;;8.05;;
48685;SDS011;34485;51.536;3.816;2022-08-14T06:00:32;9.93;;;7.83;;
48685;SDS011;34485;51.536;3.816;2022-08-14T06:03:01;9.00;;;7.75;;
48685;SDS011;34485;51.536;3.816;2022-08-14T06:05:28;7.85;;;7.15;;
48685;SDS011;34485;51.536;3.816;2022-08-14T06:07:53;10.13;;;8.20;;
48685;SDS011;34485;51.536;3.816;2022-08-14T06:10:19;8.82;;;7.93;;
48685;SDS011;34485;51.536;3.816;2022-08-14T06:12:45;9.07;;;7.90;;
48685;SDS011;34485;51.536;3.816;2022-08-14T06:15:10;8.60;;;7.72;;
48685;SDS011;34485;51.536;3.816;2022-08-14T06:17:46;14.03;;;7.37;;
48685;SDS011;34485;51.536;3.816;2022-08-14T06:20:16;11.60;;;7.68;;
48685;SDS011;34485;51.536;3.816;2022-08-14T06:22:43;22.98;;;7.90;;
48685;SDS011;34485;51.536;3.816;2022-08-14T06:25:10;10.38;;;6.88;;
48685;SDS011;34485;51.536;3.816;2022-08-14T06:27:38;12.45;;;7.53;;
48685;SDS011;34485;51.536;3.816;2022-08-14T06:30:07;9.67;;;6.57;;
48685;SDS011;34485;51.536;3.816;2022-08-14T06:32:34;19.90;;;6.85;;
48685;SDS011;34485;51.536;3.816;2022-08-14T06:35:02;14.02;;;6.90;;
48685;SDS011;34485;51.536;3.816;2022-08-14T06:37:44;8.75;;;7.10;;
48685;SDS011;34485;51.536;3.816;2022-08-14T06:40:11;18.15;;;7.43;;
48685;SDS011;34485;51.536;3.816;2022-08-14T06:42:38;10.33;;;6.37;;
48685;SDS011;34485;51.536;3.816;2022-08-14T06:45:05;7.28;;;6.47;;
48685;SDS011;34485;51.536;3.816;2022-08-14T06:47:34;55.25;;;8.20;;
48685;SDS011;34485;51.536;3.816;2022-08-14T06:50:02;9.27;;;5.93;;
48685;SDS011;34485;51.536;3.816;2022-08-14T06:52:29;10.50;;;5.68;;
48685;SDS011;34485;51.536;3.816;2022-08-14T06:54:55;6.77;;;4.80;;
48685;SDS011;34485;51.536;3.816;2022-08-14T06:57:21;12.27;;;5.35;;
48685;SDS011;34485;51.536;3.816;2022-08-14T06:59:47;8.90;;;5.40;;
48685;SDS011;34485;51.536;3.816;2022-08-14T07:02:13;12.37;;;5.57;;
48685;SDS011;34485;51.536;3.816;2022-08-14T07:04:57;7.88;;;5.35;;
48685;SDS011;34485;51.536;3.816;2022-08-14T07:07:43;8.02;;;4.70;;
48685;SDS011;34485;51.536;3.816;2022-08-14T07:10:09;11.10;;;6.00;;
48685;SDS011;34485;51.536;3.816;2022-08-14T07:12:35;23.05;;;5.60;;
48685;SDS011;34485;51.536;3.816;2022-08-14T07:15:01;9.13;;;5.30;;
48685;SDS011;34485;51.536;3.816;2022-08-14T07:17:28;13.98;;;5.13;;
48685;SDS011;34485;51.536;3.816;2022-08-14T07:19:53;6.37;;;4.47;;
48685;SDS011;34485;51.536;3.816;2022-08-14T07:22:19;6.23;;;4.73;;
48685;SDS011;34485;51.536;3.816;2022-08-14T07:24:45;5.17;;;3.90;;
48685;SDS011;34485;51.536;3.816;2022-08-14T07:27:10;6.27;;;4.43;;
48685;SDS011;34485;51.536;3.816;2022-08-14T07:29:36;16.13;;;5.10;;
48685;SDS011;34485;51.536;3.816;2022-08-14T07:32:01;12.90;;;4.67;;
48685;SDS011;34485;51.536;3.816;2022-08-14T07:34:27;6.28;;;4.15;;
48685;SDS011;34485;51.536;3.816;2022-08-14T07:36:54;4.87;;;3.70;;
48685;SDS011;34485;51.536;3.816;2022-08-14T07:39:20;4.95;;;3.50;;
48685;SDS011;34485;51.536;3.816;2022-08-14T07:41:45;4.15;;;3.50;;
48685;SDS011;34485;51.536;3.816;2022-08-14T07:44:11;7.40;;;4.00;;
48685;SDS011;34485;51.536;3.816;2022-08-14T07:46:37;3.65;;;3.35;;
48685;SDS011;34485;51.536;3.816;2022-08-14T07:49:06;7.15;;;4.00;;
48685;SDS011;34485;51.536;3.816;2022-08-14T07:51:34;5.30;;;4.20;;
48685;SDS011;34485;51.536;3.816;2022-08-14T07:54:03;4.45;;;3.50;;
48685;SDS011;34485;51.536;3.816;2022-08-14T07:56:30;6.53;;;4.43;;
48685;SDS011;34485;51.536;3.816;2022-08-14T07:58:56;7.50;;;3.53;;
48685;SDS011;34485;51.536;3.816;2022-08-14T08:01:22;4.55;;;3.67;;
48685;SDS011;34485;51.536;3.816;2022-08-14T08:03:49;7.38;;;3.88;;
48685;SDS011;34485;51.536;3.816;2022-08-14T08:06:15;3.63;;;3.33;;
48685;SDS011;34485;51.536;3.816;2022-08-14T08:08:41;3.67;;;3.23;;
48685;SDS011;34485;51.536;3.816;2022-08-14T08:11:08;6.15;;;3.40;;
48685;SDS011;34485;51.536;3.816;2022-08-14T08:13:35;3.95;;;3.40;;
48685;SDS011;34485;51.536;3.816;2022-08-14T08:16:05;7.35;;;3.42;;
48685;SDS011;34485;51.536;3.816;2022-08-14T08:18:32;6.82;;;3.40;;
48685;SDS011;34485;51.536;3.816;2022-08-14T08:20:58;3.77;;;3.47;;
48685;SDS011;34485;51.536;3.816;2022-08-14T08:23:24;3.78;;;3.40;;
48685;SDS011;34485;51.536;3.816;2022-08-14T08:25:53;3.80;;;3.50;;
48685;SDS011;34485;51.536;3.816;2022-08-14T08:28:20;3.63;;;3.33;;
48685;SDS011;34485;51.536;3.816;2022-08-14T08:33:21;3.90;;;3.60;;
48685;SDS011;34485;51.536;3.816;2022-08-14T08:35:48;4.63;;;3.35;;
48685;SDS011;34485;51.536;3.816;2022-08-14T08:38:16;3.90;;;3.60;;
48685;SDS011;34485;51.536;3.816;2022-08-14T08:40:44;4.10;;;3.70;;
48685;SDS011;34485;51.536;3.816;2022-08-14T08:43:20;4.50;;;3.20;;
48685;SDS011;34485;51.536;3.816;2022-08-14T08:48:48;3.50;;;3.20;;
48685;SDS011;34485;51.536;3.816;2022-08-14T08:51:28;6.85;;;3.65;;
48685;SDS011;34485;51.536;3.816;2022-08-14T09:02:05;4.60;;;3.83;;
48685;SDS011;34485;51.536;3.816;2022-08-14T09:04:33;11.60;;;4.65;;
48685;SDS011;34485;51.536;3.816;2022-08-14T09:07:02;4.35;;;3.85;;
48685;SDS011;34485;51.536;3.816;2022-08-14T09:09:29;3.57;;;3.37;;
48685;SDS011;34485;51.536;3.816;2022-08-14T09:11:56;3.42;;;3.22;;
48685;SDS011;34485;51.536;3.816;2022-08-14T09:14:24;3.17;;;2.97;;
48685;SDS011;34485;51.536;3.816;2022-08-14T09:16:53;3.40;;;3.10;;
48685;SDS011;34485;51.536;3.816;2022-08-14T09:19:20;6.90;;;3.35;;
48685;SDS011;34485;51.536;3.816;2022-08-14T09:21:46;3.10;;;2.90;;
48685;SDS011;34485;51.536;3.816;2022-08-14T09:24:13;3.75;;;3.50;;
48685;SDS011;34485;51.536;3.816;2022-08-14T09:26:39;5.75;;;3.50;;
48685;SDS011;34485;51.536;3.816;2022-08-14T09:29:06;3.65;;;2.90;;
48685;SDS011;34485;51.536;3.816;2022-08-14T09:31:33;3.53;;;3.22;;
48685;SDS011;34485;51.536;3.816;2022-08-14T09:39:42;4.63;;;3.65;;
48685;SDS011;34485;51.536;3.816;2022-08-14T09:45:16;3.58;;;3.28;;
48685;SDS011;34485;51.536;3.816;2022-08-14T09:47:46;3.23;;;3.03;;
48685;SDS011;34485;51.536;3.816;2022-08-14T09:50:30;6.50;;;3.40;;
48685;SDS011;34485;51.536;3.816;2022-08-14T09:53:07;3.53;;;3.33;;
48685;SDS011;34485;51.536;3.816;2022-08-14T09:55:34;10.35;;;3.83;;
48685;SDS011;34485;51.536;3.816;2022-08-14T09:58:16;3.40;;;3.20;;
48685;SDS011;34485;51.536;3.816;2022-08-14T10:00:45;3.47;;;3.28;;
48685;SDS011;34485;51.536;3.816;2022-08-14T10:03:23;3.45;;;3.13;;
48685;SDS011;34485;51.536;3.816;2022-08-14T10:06:09;2.90;;;2.70;;
48685;SDS011;34485;51.536;3.816;2022-08-14T10:11:13;3.57;;;3.37;;
48685;SDS011;34485;51.536;3.816;2022-08-14T10:13:41;3.45;;;3.15;;
48685;SDS011;34485;51.536;3.816;2022-08-14T10:16:07;3.72;;;3.30;;
48685;SDS011;34485;51.536;3.816;2022-08-14T10:18:33;3.00;;;2.90;;
48685;SDS011;34485;51.536;3.816;2022-08-14T10:20:59;3.13;;;2.92;;
48685;SDS011;34485;51.536;3.816;2022-08-14T10:23:37;3.20;;;2.95;;
48685;SDS011;34485;51.536;3.816;2022-08-14T10:26:07;2.90;;;2.60;;
48685;SDS011;34485;51.536;3.816;2022-08-14T10:28:40;7.13;;;3.10;;
48685;SDS011;34485;51.536;3.816;2022-08-14T10:31:15;5.50;;;3.15;;
48685;SDS011;34485;51.536;3.816;2022-08-14T10:33:57;3.85;;;2.72;;
48685;SDS011;34485;51.536;3.816;2022-08-14T10:36:25;3.22;;;2.92;;
48685;SDS011;34485;51.536;3.816;2022-08-14T10:38:55;2.63;;;2.53;;
48685;SDS011;34485;51.536;3.816;2022-08-14T10:41:22;3.25;;;2.95;;
48685;SDS011;34485;51.536;3.816;2022-08-14T10:44:04;3.40;;;3.20;;
48685;SDS011;34485;51.536;3.816;2022-08-14T10:46:39;3.35;;;3.03;;
48685;SDS011;34485;51.536;3.816;2022-08-14T10:49:14;3.70;;;3.40;;
48685;SDS011;34485;51.536;3.816;2022-08-14T10:51:55;3.40;;;3.20;;
48685;SDS011;34485;51.536;3.816;2022-08-14T10:54:31;3.88;;;3.45;;
48685;SDS011;34485;51.536;3.816;2022-08-14T11:00:10;3.10;;;3.00;;
48685;SDS011;34485;51.536;3.816;2022-08-14T11:02:38;3.65;;;3.35;;
48685;SDS011;34485;51.536;3.816;2022-08-14T11:05:09;4.60;;;2.90;;
48685;SDS011;34485;51.536;3.816;2022-08-14T11:07:38;3.80;;;2.95;;
48685;SDS011;34485;51.536;3.816;2022-08-14T11:10:06;2.92;;;2.72;;
48685;SDS011;34485;51.536;3.816;2022-08-14T11:12:41;4.15;;;3.85;;
48685;SDS011;34485;51.536;3.816;2022-08-14T11:15:15;4.05;;;3.75;;
48685;SDS011;34485;51.536;3.816;2022-08-14T11:17:42;2.97;;;2.87;;
48685;SDS011;34485;51.536;3.816;2022-08-14T11:20:09;4.95;;;2.97;;
48685;SDS011;34485;51.536;3.816;2022-08-14T11:22:36;5.45;;;3.00;;
48685;SDS011;34485;51.536;3.816;2022-08-14T11:25:11;3.30;;;3.10;;
48685;SDS011;34485;51.536;3.816;2022-08-14T11:27:39;3.10;;;2.90;;
48685;SDS011;34485;51.536;3.816;2022-08-14T11:30:09;3.37;;;3.20;;
48685;SDS011;34485;51.536;3.816;2022-08-14T11:32:40;3.30;;;3.10;;
48685;SDS011;34485;51.536;3.816;2022-08-14T11:35:12;2.95;;;2.67;;
48685;SDS011;34485;51.536;3.816;2022-08-14T11:37:52;3.00;;;2.80;;
48685;SDS011;34485;51.536;3.816;2022-08-14T11:40:29;23.67;;;4.63;;
48685;SDS011;34485;51.536;3.816;2022-08-14T11:42:59;3.70;;;3.23;;
48685;SDS011;34485;51.536;3.816;2022-08-14T11:45:27;4.22;;;2.90;;
48685;SDS011;34485;51.536;3.816;2022-08-14T11:47:58;3.53;;;3.30;;
48685;SDS011;34485;51.536;3.816;2022-08-14T11:50:30;3.88;;;3.47;;
48685;SDS011;34485;51.536;3.816;2022-08-14T11:52:57;3.72;;;3.53;;
48685;SDS011;34485;51.536;3.816;2022-08-14T11:55:26;6.73;;;3.47;;
48685;SDS011;34485;51.536;3.816;2022-08-14T11:58:03;3.50;;;3.20;;
48685;SDS011;34485;51.536;3.816;2022-08-14T12:00:33;4.47;;;3.97;;
48685;SDS011;34485;51.536;3.816;2022-08-14T12:03:09;3.40;;;3.13;;
48685;SDS011;34485;51.536;3.816;2022-08-14T12:05:36;4.13;;;3.80;;
48685;SDS011;34485;51.536;3.816;2022-08-14T12:08:06;4.07;;;3.78;;
48685;SDS011;34485;51.536;3.816;2022-08-14T12:10:36;3.60;;;3.40;;
48685;SDS011;34485;51.536;3.816;2022-08-14T12:13:16;4.65;;;3.40;;
48685;SDS011;34485;51.536;3.816;2022-08-14T12:15:44;6.67;;;3.20;;
48685;SDS011;34485;51.536;3.816;2022-08-14T12:18:10;4.82;;;3.90;;
48685;SDS011;34485;51.536;3.816;2022-08-14T12:20:38;4.50;;;3.58;;
48685;SDS011;34485;51.536;3.816;2022-08-14T12:23:19;4.10;;;3.70;;
48685;SDS011;34485;51.536;3.816;2022-08-14T12:25:47;5.50;;;3.60;;
48685;SDS011;34485;51.536;3.816;2022-08-14T12:28:13;3.10;;;2.87;;
48685;SDS011;34485;51.536;3.816;2022-08-14T12:30:44;3.60;;;3.40;;
48685;SDS011;34485;51.536;3.816;2022-08-14T12:33:20;5.60;;;3.63;;
48685;SDS011;34485;51.536;3.816;2022-08-14T12:35:50;3.10;;;2.90;;
48685;SDS011;34485;51.536;3.816;2022-08-14T12:38:17;5.93;;;3.20;;
48685;SDS011;34485;51.536;3.816;2022-08-14T12:40:52;4.30;;;3.27;;
48685;SDS011;34485;51.536;3.816;2022-08-14T12:43:18;4.05;;;3.35;;
48685;SDS011;34485;51.536;3.816;2022-08-14T12:45:49;3.30;;;3.10;;
48685;SDS011;34485;51.536;3.816;2022-08-14T12:48:19;3.15;;;2.95;;
48685;SDS011;34485;51.536;3.816;2022-08-14T12:50:45;4.88;;;3.38;;
48685;SDS011;34485;51.536;3.816;2022-08-14T12:53:11;3.13;;;2.93;;
48685;SDS011;34485;51.536;3.816;2022-08-14T12:55:37;4.13;;;3.20;;
48685;SDS011;34485;51.536;3.816;2022-08-14T12:58:05;3.80;;;3.60;;
48685;SDS011;34485;51.536;3.816;2022-08-14T13:00:32;3.30;;;3.10;;
48685;SDS011;34485;51.536;3.816;2022-08-14T13:03:02;3.20;;;3.00;;
48685;SDS011;34485;51.536;3.816;2022-08-14T13:05:33;5.22;;;3.35;;
48685;SDS011;34485;51.536;3.816;2022-08-14T13:07:59;5.70;;;2.83;;
48685;SDS011;34485;51.536;3.816;2022-08-14T13:10:30;4.95;;;2.65;;
48685;SDS011;34485;51.536;3.816;2022-08-14T13:12:59;3.15;;;2.70;;
48685;SDS011;34485;51.536;3.816;2022-08-14T13:15:26;20.50;;;3.97;;
48685;SDS011;34485;51.536;3.816;2022-08-14T13:17:53;6.85;;;3.10;;
48685;SDS011;34485;51.536;3.816;2022-08-14T13:20:25;3.65;;;3.30;;
48685;SDS011;34485;51.536;3.816;2022-08-14T13:22:53;3.20;;;3.00;;
48685;SDS011;34485;51.536;3.816;2022-08-14T13:25:23;3.43;;;3.23;;
48685;SDS011;34485;51.536;3.816;2022-08-14T13:27:51;3.10;;;2.90;;
48685;SDS011;34485;51.536;3.816;2022-08-14T13:30:23;3.50;;;2.85;;
48685;SDS011;34485;51.536;3.816;2022-08-14T13:32:50;5.20;;;2.80;;
48685;SDS011;34485;51.536;3.816;2022-08-14T13:35:17;3.30;;;3.00;;
48685;SDS011;34485;51.536;3.816;2022-08-14T13:37:45;2.80;;;2.70;;
48685;SDS011;34485;51.536;3.816;2022-08-14T13:40:14;2.97;;;2.78;;
48685;SDS011;34485;51.536;3.816;2022-08-14T13:42:42;3.67;;;3.13;;
48685;SDS011;34485;51.536;3.816;2022-08-14T13:45:10;3.20;;;2.90;;
48685;SDS011;34485;51.536;3.816;2022-08-14T13:47:37;2.90;;;2.72;;
48685;SDS011;34485;51.536;3.816;2022-08-14T13:50:05;3.70;;;3.40;;
48685;SDS011;34485;51.536;3.816;2022-08-14T13:52:38;3.10;;;2.80;;
48685;SDS011;34485;51.536;3.816;2022-08-14T13:55:09;2.90;;;2.70;;
48685;SDS011;34485;51.536;3.816;2022-08-14T13:57:40;3.05;;;2.67;;
48685;SDS011;34485;51.536;3.816;2022-08-14T14:00:08;7.93;;;2.90;;
48685;SDS011;34485;51.536;3.816;2022-08-14T14:02:37;3.13;;;2.85;;
48685;SDS011;34485;51.536;3.816;2022-08-14T14:05:04;4.85;;;3.40;;
48685;SDS011;34485;51.536;3.816;2022-08-14T14:07:32;3.00;;;2.80;;
48685;SDS011;34485;51.536;3.816;2022-08-14T14:10:00;27.80;;;3.88;;
48685;SDS011;34485;51.536;3.816;2022-08-14T14:12:28;3.03;;;2.83;;
48685;SDS011;34485;51.536;3.816;2022-08-14T14:14:55;7.43;;;2.88;;
48685;SDS011;34485;51.536;3.816;2022-08-14T14:17:23;3.30;;;2.90;;
48685;SDS011;34485;51.536;3.816;2022-08-14T14:19:50;3.03;;;2.83;;
48685;SDS011;34485;51.536;3.816;2022-08-14T14:22:16;3.28;;;2.97;;
48685;SDS011;34485;51.536;3.816;2022-08-14T14:24:42;2.63;;;2.53;;
48685;SDS011;34485;51.536;3.816;2022-08-14T14:27:10;2.80;;;2.60;;
48685;SDS011;34485;51.536;3.816;2022-08-14T14:29:43;5.63;;;2.90;;
48685;SDS011;34485;51.536;3.816;2022-08-14T14:32:12;2.80;;;2.60;;
48685;SDS011;34485;51.536;3.816;2022-08-14T14:34:41;2.72;;;2.53;;
48685;SDS011;34485;51.536;3.816;2022-08-14T14:37:08;3.37;;;2.40;;
48685;SDS011;34485;51.536;3.816;2022-08-14T14:39:37;3.28;;;2.90;;
48685;SDS011;34485;51.536;3.816;2022-08-14T14:42:04;2.67;;;2.55;;
48685;SDS011;34485;51.536;3.816;2022-08-14T14:44:33;2.92;;;2.72;;
48685;SDS011;34485;51.536;3.816;2022-08-14T14:47:06;7.65;;;2.58;;
48685;SDS011;34485;51.536;3.816;2022-08-14T14:49:35;2.63;;;2.47;;
48685;SDS011;34485;51.536;3.816;2022-08-14T14:52:03;2.60;;;2.40;;
48685;SDS011;34485;51.536;3.816;2022-08-14T14:54:30;3.10;;;2.80;;
48685;SDS011;34485;51.536;3.816;2022-08-14T14:57:00;2.55;;;2.45;;
48685;SDS011;34485;51.536;3.816;2022-08-14T14:59:27;4.60;;;2.65;;
48685;SDS011;34485;51.536;3.816;2022-08-14T15:01:58;2.50;;;2.40;;
48685;SDS011;34485;51.536;3.816;2022-08-14T15:04:31;3.58;;;2.50;;
48685;SDS011;34485;51.536;3.816;2022-08-14T15:06:57;2.45;;;2.25;;
48685;SDS011;34485;51.536;3.816;2022-08-14T15:09:24;3.78;;;2.40;;
48685;SDS011;34485;51.536;3.816;2022-08-14T15:11:50;2.57;;;2.40;;
48685;SDS011;34485;51.536;3.816;2022-08-14T15:14:16;9.38;;;2.40;;
48685;SDS011;34485;51.536;3.816;2022-08-14T15:16:41;2.55;;;2.38;;
48685;SDS011;34485;51.536;3.816;2022-08-14T15:19:08;3.30;;;3.00;;
48685;SDS011;34485;51.536;3.816;2022-08-14T15:21:35;34.80;;;3.88;;
48685;SDS011;34485;51.536;3.816;2022-08-14T15:24:01;4.10;;;2.53;;
48685;SDS011;34485;51.536;3.816;2022-08-14T15:26:28;2.97;;;2.65;;
48685;SDS011;34485;51.536;3.816;2022-08-14T15:28:53;3.23;;;2.47;;